sensor_id;sensor_type;location;lat;lon;timestamp;P1;durP1;ratioP1;P2;durP2;ratioP2
14396;SDS011;50653;47.810;13.022;2024-02-16T00:01:20;0.77;;;0.60;;
14396;SDS011;50653;47.810;13.022;2024-02-16T00:03:46;1.20;;;0.80;;
14396;SDS011;50653;47.810;13.022;2024-02-16T00:06:11;1.03;;;0.83;;
14396;SDS011;50653;47.810;13.022;2024-02-16T00:08:37;4.30;;;1.00;;
14396;SDS011;50653;47.810;13.022;2024-02-16T00:11:04;0.80;;;0.80;;
14396;SDS011;50653;47.810;13.022;2024-02-16T00:13:30;0.90;;;0.77;;
14396;SDS011;50653;47.810;13.022;2024-02-16T00:15:56;1.30;;;0.77;;
14396;SDS011;50653;47.810;13.022;2024-02-16T00:18:22;1.50;;;0.77;;
14396;SDS011;50653;47.810;13.022;2024-02-16T00:20:49;1.53;;;0.90;;
14396;SDS011;50653;47.810;13.022;2024-02-16T00:23:14;0.77;;;0.60;;
14396;SDS011;50653;47.810;13.022;2024-02-16T00:25:40;0.83;;;0.67;;
14396;SDS011;50653;47.810;13.022;2024-02-16T00:28:06;1.10;;;0.80;;
14396;SDS011;50653;47.810;13.022;2024-02-16T00:30:32;1.03;;;1.00;;
14396;SDS011;50653;47.810;13.022;2024-02-16T00:32:58;0.90;;;0.80;;
14396;SDS011;50653;47.810;13.022;2024-02-16T00:35:23;0.80;;;0.60;;
14396;SDS011;50653;47.810;13.022;2024-02-16T00:37:49;0.70;;;0.50;;
14396;SDS011;50653;47.810;13.022;2024-02-16T00:40:15;0.80;;;0.70;;
14396;SDS011;50653;47.810;13.022;2024-02-16T00:42:40;0.90;;;0.60;;
14396;SDS011;50653;47.810;13.022;2024-02-16T00:45:06;0.87;;;0.63;;
14396;SDS011;50653;47.810;13.022;2024-02-16T00:47:33;0.60;;;0.50;;
14396;SDS011;50653;47.810;13.022;2024-02-16T00:49:59;0.90;;;0.53;;
14396;SDS011;50653;47.810;13.022;2024-02-16T00:52:24;0.70;;;0.70;;
14396;SDS011;50653;47.810;13.022;2024-02-16T00:54:50;1.07;;;0.90;;
14396;SDS011;50653;47.810;13.022;2024-02-16T00:57:16;0.90;;;0.50;;
14396;SDS011;50653;47.810;13.022;2024-02-16T00:59:41;0.80;;;0.70;;
14396;SDS011;50653;47.810;13.022;2024-02-16T01:02:07;0.80;;;0.50;;
14396;SDS011;50653;47.810;13.022;2024-02-16T01:04:34;0.67;;;0.57;;
14396;SDS011;50653;47.810;13.022;2024-02-16T01:07:00;1.43;;;0.67;;
14396;SDS011;50653;47.810;13.022;2024-02-16T01:09:26;0.73;;;0.67;;
14396;SDS011;50653;47.810;13.022;2024-02-16T01:11:52;0.80;;;0.67;;
14396;SDS011;50653;47.810;13.022;2024-02-16T01:14:17;0.80;;;0.60;;
14396;SDS011;50653;47.810;13.022;2024-02-16T01:16:44;1.40;;;0.90;;
14396;SDS011;50653;47.810;13.022;2024-02-16T01:19:10;0.80;;;0.60;;
14396;SDS011;50653;47.810;13.022;2024-02-16T01:21:36;0.77;;;0.60;;
14396;SDS011;50653;47.810;13.022;2024-02-16T01:24:02;1.00;;;0.60;;
14396;SDS011;50653;47.810;13.022;2024-02-16T01:26:28;0.63;;;0.57;;
14396;SDS011;50653;47.810;13.022;2024-02-16T01:28:54;0.80;;;0.70;;
14396;SDS011;50653;47.810;13.022;2024-02-16T01:31:20;0.70;;;0.63;;
14396;SDS011;50653;47.810;13.022;2024-02-16T01:33:46;0.97;;;0.83;;
14396;SDS011;50653;47.810;13.022;2024-02-16T01:36:11;0.80;;;0.60;;
14396;SDS011;50653;47.810;13.022;2024-02-16T01:38:37;0.80;;;0.70;;
14396;SDS011;50653;47.810;13.022;2024-02-16T01:41:03;0.80;;;0.50;;
14396;SDS011;50653;47.810;13.022;2024-02-16T01:43:29;0.80;;;0.70;;
14396;SDS011;50653;47.810;13.022;2024-02-16T01:45:56;0.60;;;0.50;;
14396;SDS011;50653;47.810;13.022;2024-02-16T01:48:24;0.80;;;0.60;;
14396;SDS011;50653;47.810;13.022;2024-02-16T01:50:51;0.70;;;0.60;;
14396;SDS011;50653;47.810;13.022;2024-02-16T01:53:18;0.60;;;0.50;;
14396;SDS011;50653;47.810;13.022;2024-02-16T01:55:45;0.90;;;0.60;;
14396;SDS011;50653;47.810;13.022;2024-02-16T01:58:11;0.73;;;0.60;;
14396;SDS011;50653;47.810;13.022;2024-02-16T02:00:37;0.60;;;0.40;;
14396;SDS011;50653;47.810;13.022;2024-02-16T02:03:04;0.90;;;0.70;;
14396;SDS011;50653;47.810;13.022;2024-02-16T02:05:31;0.80;;;0.50;;
14396;SDS011;50653;47.810;13.022;2024-02-16T02:07:57;0.50;;;0.50;;
14396;SDS011;50653;47.810;13.022;2024-02-16T02:10:22;0.67;;;0.50;;
14396;SDS011;50653;47.810;13.022;2024-02-16T02:12:48;0.73;;;0.60;;
14396;SDS011;50653;47.810;13.022;2024-02-16T02:15:14;0.73;;;0.60;;
14396;SDS011;50653;47.810;13.022;2024-02-16T02:17:40;0.70;;;0.50;;
14396;SDS011;50653;47.810;13.022;2024-02-16T02:20:06;0.80;;;0.70;;
14396;SDS011;50653;47.810;13.022;2024-02-16T02:22:36;0.80;;;0.70;;
14396;SDS011;50653;47.810;13.022;2024-02-16T02:25:03;0.60;;;0.50;;
14396;SDS011;50653;47.810;13.022;2024-02-16T02:27:30;1.97;;;0.70;;
14396;SDS011;50653;47.810;13.022;2024-02-16T02:29:56;0.80;;;0.80;;
14396;SDS011;50653;47.810;13.022;2024-02-16T02:32:21;2.50;;;0.70;;
14396;SDS011;50653;47.810;13.022;2024-02-16T02:34:47;0.80;;;0.60;;
14396;SDS011;50653;47.810;13.022;2024-02-16T02:37:13;1.00;;;0.60;;
14396;SDS011;50653;47.810;13.022;2024-02-16T02:39:38;1.87;;;0.60;;
14396;SDS011;50653;47.810;13.022;2024-02-16T02:42:05;0.77;;;0.67;;
14396;SDS011;50653;47.810;13.022;2024-02-16T02:44:33;0.93;;;0.90;;
14396;SDS011;50653;47.810;13.022;2024-02-16T02:46:59;1.03;;;0.70;;
14396;SDS011;50653;47.810;13.022;2024-02-16T02:49:24;1.37;;;0.60;;
14396;SDS011;50653;47.810;13.022;2024-02-16T02:51:50;0.73;;;0.57;;
14396;SDS011;50653;47.810;13.022;2024-02-16T02:54:16;1.83;;;0.70;;
14396;SDS011;50653;47.810;13.022;2024-02-16T02:56:41;6.40;;;0.50;;
14396;SDS011;50653;47.810;13.022;2024-02-16T02:59:07;0.53;;;0.40;;
14396;SDS011;50653;47.810;13.022;2024-02-16T03:01:35;0.90;;;0.60;;
14396;SDS011;50653;47.810;13.022;2024-02-16T03:04:00;0.70;;;0.50;;
14396;SDS011;50653;47.810;13.022;2024-02-16T03:06:26;0.70;;;0.60;;
14396;SDS011;50653;47.810;13.022;2024-02-16T03:08:52;0.60;;;0.50;;
14396;SDS011;50653;47.810;13.022;2024-02-16T03:11:18;0.50;;;0.40;;
14396;SDS011;50653;47.810;13.022;2024-02-16T03:13:43;0.60;;;0.40;;
14396;SDS011;50653;47.810;13.022;2024-02-16T03:16:09;0.60;;;0.50;;
14396;SDS011;50653;47.810;13.022;2024-02-16T03:18:35;0.67;;;0.50;;
14396;SDS011;50653;47.810;13.022;2024-02-16T03:21:01;0.60;;;0.40;;
14396;SDS011;50653;47.810;13.022;2024-02-16T03:23:27;0.80;;;0.60;;
14396;SDS011;50653;47.810;13.022;2024-02-16T03:25:53;0.83;;;0.70;;
14396;SDS011;50653;47.810;13.022;2024-02-16T03:28:18;0.80;;;0.70;;
14396;SDS011;50653;47.810;13.022;2024-02-16T03:30:45;0.70;;;0.40;;
14396;SDS011;50653;47.810;13.022;2024-02-16T03:33:12;0.80;;;0.50;;
14396;SDS011;50653;47.810;13.022;2024-02-16T03:35:38;0.70;;;0.60;;
14396;SDS011;50653;47.810;13.022;2024-02-16T03:38:05;0.77;;;0.50;;
14396;SDS011;50653;47.810;13.022;2024-02-16T03:40:31;0.60;;;0.50;;
14396;SDS011;50653;47.810;13.022;2024-02-16T03:42:57;0.70;;;0.50;;
14396;SDS011;50653;47.810;13.022;2024-02-16T03:45:24;0.70;;;0.57;;
14396;SDS011;50653;47.810;13.022;2024-02-16T03:47:49;0.90;;;0.67;;
14396;SDS011;50653;47.810;13.022;2024-02-16T03:50:18;0.67;;;0.57;;
14396;SDS011;50653;47.810;13.022;2024-02-16T03:52:44;0.63;;;0.50;;
14396;SDS011;50653;47.810;13.022;2024-02-16T03:55:10;0.60;;;0.43;;
14396;SDS011;50653;47.810;13.022;2024-02-16T03:57:37;0.60;;;0.50;;
14396;SDS011;50653;47.810;13.022;2024-02-16T04:00:03;0.77;;;0.60;;
14396;SDS011;50653;47.810;13.022;2024-02-16T04:02:37;0.70;;;0.60;;
14396;SDS011;50653;47.810;13.022;2024-02-16T04:05:04;0.90;;;0.60;;
14396;SDS011;50653;47.810;13.022;2024-02-16T04:07:30;0.90;;;0.70;;
14396;SDS011;50653;47.810;13.022;2024-02-16T04:09:56;1.13;;;0.70;;
14396;SDS011;50653;47.810;13.022;2024-02-16T04:12:21;0.90;;;0.80;;
14396;SDS011;50653;47.810;13.022;2024-02-16T04:14:47;1.07;;;0.97;;
14396;SDS011;50653;47.810;13.022;2024-02-16T04:17:13;0.97;;;0.87;;
14396;SDS011;50653;47.810;13.022;2024-02-16T04:19:38;1.03;;;0.77;;
14396;SDS011;50653;47.810;13.022;2024-02-16T04:22:04;1.00;;;0.50;;
14396;SDS011;50653;47.810;13.022;2024-02-16T04:24:30;1.00;;;0.70;;
14396;SDS011;50653;47.810;13.022;2024-02-16T04:26:55;0.70;;;0.60;;
14396;SDS011;50653;47.810;13.022;2024-02-16T04:29:21;1.17;;;0.70;;
14396;SDS011;50653;47.810;13.022;2024-02-16T04:31:47;0.90;;;0.70;;
14396;SDS011;50653;47.810;13.022;2024-02-16T04:34:13;0.80;;;0.60;;
14396;SDS011;50653;47.810;13.022;2024-02-16T04:36:39;0.70;;;0.53;;
14396;SDS011;50653;47.810;13.022;2024-02-16T04:39:04;0.70;;;0.60;;
14396;SDS011;50653;47.810;13.022;2024-02-16T04:41:31;0.70;;;0.63;;
14396;SDS011;50653;47.810;13.022;2024-02-16T04:43:56;1.13;;;0.80;;
14396;SDS011;50653;47.810;13.022;2024-02-16T04:46:22;1.67;;;0.50;;
14396;SDS011;50653;47.810;13.022;2024-02-16T04:48:48;1.10;;;0.60;;
14396;SDS011;50653;47.810;13.022;2024-02-16T04:51:14;0.70;;;0.50;;
14396;SDS011;50653;47.810;13.022;2024-02-16T04:53:39;1.00;;;0.70;;
14396;SDS011;50653;47.810;13.022;2024-02-16T04:56:05;0.80;;;0.50;;
14396;SDS011;50653;47.810;13.022;2024-02-16T04:58:31;1.00;;;0.67;;
14396;SDS011;50653;47.810;13.022;2024-02-16T05:00:57;0.67;;;0.60;;
14396;SDS011;50653;47.810;13.022;2024-02-16T05:03:23;1.30;;;0.70;;
14396;SDS011;50653;47.810;13.022;2024-02-16T05:05:49;0.80;;;0.70;;
14396;SDS011;50653;47.810;13.022;2024-02-16T05:08:16;1.00;;;0.80;;
14396;SDS011;50653;47.810;13.022;2024-02-16T05:10:41;0.70;;;0.63;;
14396;SDS011;50653;47.810;13.022;2024-02-16T05:13:07;0.97;;;0.87;;
14396;SDS011;50653;47.810;13.022;2024-02-16T05:15:33;1.00;;;0.90;;
14396;SDS011;50653;47.810;13.022;2024-02-16T05:17:59;2.10;;;0.60;;
14396;SDS011;50653;47.810;13.022;2024-02-16T05:20:25;0.70;;;0.50;;
14396;SDS011;50653;47.810;13.022;2024-02-16T05:22:50;0.70;;;0.53;;
14396;SDS011;50653;47.810;13.022;2024-02-16T05:25:17;0.70;;;0.60;;
14396;SDS011;50653;47.810;13.022;2024-02-16T05:27:43;0.70;;;0.50;;
14396;SDS011;50653;47.810;13.022;2024-02-16T05:30:15;0.90;;;0.50;;
14396;SDS011;50653;47.810;13.022;2024-02-16T05:32:41;0.73;;;0.73;;
14396;SDS011;50653;47.810;13.022;2024-02-16T05:35:08;0.97;;;0.60;;
14396;SDS011;50653;47.810;13.022;2024-02-16T05:37:46;1.27;;;0.60;;
14396;SDS011;50653;47.810;13.022;2024-02-16T05:40:18;0.70;;;0.57;;
14396;SDS011;50653;47.810;13.022;2024-02-16T05:42:47;0.87;;;0.60;;
14396;SDS011;50653;47.810;13.022;2024-02-16T05:45:14;0.97;;;0.60;;
14396;SDS011;50653;47.810;13.022;2024-02-16T05:47:40;0.80;;;0.63;;
14396;SDS011;50653;47.810;13.022;2024-02-16T05:50:08;0.90;;;0.70;;
14396;SDS011;50653;47.810;13.022;2024-02-16T05:52:33;0.60;;;0.60;;
14396;SDS011;50653;47.810;13.022;2024-02-16T05:54:59;1.00;;;0.80;;
14396;SDS011;50653;47.810;13.022;2024-02-16T05:57:25;1.10;;;0.80;;
14396;SDS011;50653;47.810;13.022;2024-02-16T05:59:51;0.70;;;0.70;;
14396;SDS011;50653;47.810;13.022;2024-02-16T06:02:17;1.10;;;0.80;;
14396;SDS011;50653;47.810;13.022;2024-02-16T06:04:43;0.80;;;0.73;;
14396;SDS011;50653;47.810;13.022;2024-02-16T06:07:09;1.30;;;0.83;;
14396;SDS011;50653;47.810;13.022;2024-02-16T06:09:36;0.80;;;0.53;;
14396;SDS011;50653;47.810;13.022;2024-02-16T06:12:05;1.20;;;0.77;;
14396;SDS011;50653;47.810;13.022;2024-02-16T06:14:32;0.80;;;0.53;;
14396;SDS011;50653;47.810;13.022;2024-02-16T06:16:58;0.70;;;0.50;;
14396;SDS011;50653;47.810;13.022;2024-02-16T06:19:25;1.20;;;0.70;;
14396;SDS011;50653;47.810;13.022;2024-02-16T06:21:52;0.70;;;0.60;;
14396;SDS011;50653;47.810;13.022;2024-02-16T06:24:19;0.80;;;0.60;;
14396;SDS011;50653;47.810;13.022;2024-02-16T06:26:46;0.97;;;0.80;;
14396;SDS011;50653;47.810;13.022;2024-02-16T06:29:11;0.77;;;0.60;;
14396;SDS011;50653;47.810;13.022;2024-02-16T06:31:37;0.80;;;0.70;;
14396;SDS011;50653;47.810;13.022;2024-02-16T06:34:03;1.27;;;0.80;;
14396;SDS011;50653;47.810;13.022;2024-02-16T06:36:29;0.80;;;0.70;;
14396;SDS011;50653;47.810;13.022;2024-02-16T06:38:54;0.73;;;0.60;;
14396;SDS011;50653;47.810;13.022;2024-02-16T06:41:20;0.80;;;0.70;;
14396;SDS011;50653;47.810;13.022;2024-02-16T06:43:46;0.83;;;0.83;;
14396;SDS011;50653;47.810;13.022;2024-02-16T06:46:12;1.00;;;0.93;;
14396;SDS011;50653;47.810;13.022;2024-02-16T06:48:37;1.20;;;1.10;;
14396;SDS011;50653;47.810;13.022;2024-02-16T06:51:03;2.13;;;1.67;;
14396;SDS011;50653;47.810;13.022;2024-02-16T06:53:29;1.40;;;1.20;;
14396;SDS011;50653;47.810;13.022;2024-02-16T06:55:54;1.40;;;1.30;;
14396;SDS011;50653;47.810;13.022;2024-02-16T06:58:20;3.93;;;2.10;;
14396;SDS011;50653;47.810;13.022;2024-02-16T07:00:46;2.53;;;2.20;;
14396;SDS011;50653;47.810;13.022;2024-02-16T07:03:12;2.70;;;2.50;;
14396;SDS011;50653;47.810;13.022;2024-02-16T07:05:37;4.67;;;2.40;;
14396;SDS011;50653;47.810;13.022;2024-02-16T07:08:05;2.67;;;2.47;;
14396;SDS011;50653;47.810;13.022;2024-02-16T07:10:32;2.17;;;2.00;;
14396;SDS011;50653;47.810;13.022;2024-02-16T07:12:58;3.00;;;2.80;;
14396;SDS011;50653;47.810;13.022;2024-02-16T07:15:24;2.80;;;2.60;;
14396;SDS011;50653;47.810;13.022;2024-02-16T07:17:52;3.90;;;3.70;;
14396;SDS011;50653;47.810;13.022;2024-02-16T07:20:18;2.90;;;2.70;;
14396;SDS011;50653;47.810;13.022;2024-02-16T07:22:44;3.50;;;2.80;;
14396;SDS011;50653;47.810;13.022;2024-02-16T07:25:12;3.10;;;2.90;;
14396;SDS011;50653;47.810;13.022;2024-02-16T07:27:38;2.17;;;2.07;;
14396;SDS011;50653;47.810;13.022;2024-02-16T07:30:04;3.13;;;2.93;;
14396;SDS011;50653;47.810;13.022;2024-02-16T07:32:31;3.00;;;2.77;;
14396;SDS011;50653;47.810;13.022;2024-02-16T07:34:56;2.07;;;1.50;;
14396;SDS011;50653;47.810;13.022;2024-02-16T07:37:22;2.57;;;2.30;;
14396;SDS011;50653;47.810;13.022;2024-02-16T07:39:48;2.93;;;2.73;;
14396;SDS011;50653;47.810;13.022;2024-02-16T07:42:14;4.07;;;2.87;;
14396;SDS011;50653;47.810;13.022;2024-02-16T07:44:39;2.20;;;2.10;;
14396;SDS011;50653;47.810;13.022;2024-02-16T07:47:07;2.10;;;2.00;;
14396;SDS011;50653;47.810;13.022;2024-02-16T07:49:32;2.53;;;2.43;;
14396;SDS011;50653;47.810;13.022;2024-02-16T07:51:58;2.60;;;2.50;;
14396;SDS011;50653;47.810;13.022;2024-02-16T07:54:24;2.00;;;1.90;;
14396;SDS011;50653;47.810;13.022;2024-02-16T07:56:49;2.17;;;2.07;;
14396;SDS011;50653;47.810;13.022;2024-02-16T07:59:15;1.80;;;1.70;;
14396;SDS011;50653;47.810;13.022;2024-02-16T08:01:43;2.10;;;2.00;;
14396;SDS011;50653;47.810;13.022;2024-02-16T08:04:10;1.93;;;1.83;;
14396;SDS011;50653;47.810;13.022;2024-02-16T08:06:35;2.50;;;2.40;;
14396;SDS011;50653;47.810;13.022;2024-02-16T08:09:02;2.23;;;2.13;;
14396;SDS011;50653;47.810;13.022;2024-02-16T08:11:29;2.93;;;2.63;;
14396;SDS011;50653;47.810;13.022;2024-02-16T08:13:55;3.30;;;2.60;;
14396;SDS011;50653;47.810;13.022;2024-02-16T08:16:25;2.30;;;2.10;;
14396;SDS011;50653;47.810;13.022;2024-02-16T08:18:52;1.70;;;1.60;;
14396;SDS011;50653;47.810;13.022;2024-02-16T08:21:18;1.60;;;1.50;;
14396;SDS011;50653;47.810;13.022;2024-02-16T08:23:43;1.97;;;1.87;;
14396;SDS011;50653;47.810;13.022;2024-02-16T08:26:09;2.00;;;1.80;;
14396;SDS011;50653;47.810;13.022;2024-02-16T08:28:35;1.90;;;1.80;;
14396;SDS011;50653;47.810;13.022;2024-02-16T08:31:00;1.80;;;1.70;;
14396;SDS011;50653;47.810;13.022;2024-02-16T08:33:26;2.33;;;2.13;;
14396;SDS011;50653;47.810;13.022;2024-02-16T08:35:52;1.80;;;1.70;;
14396;SDS011;50653;47.810;13.022;2024-02-16T08:38:17;3.43;;;3.20;;
14396;SDS011;50653;47.810;13.022;2024-02-16T08:40:43;2.47;;;2.27;;
14396;SDS011;50653;47.810;13.022;2024-02-16T08:43:09;2.20;;;2.00;;
14396;SDS011;50653;47.810;13.022;2024-02-16T08:45:34;1.80;;;1.70;;
14396;SDS011;50653;47.810;13.022;2024-02-16T08:48:00;2.10;;;1.63;;
14396;SDS011;50653;47.810;13.022;2024-02-16T08:50:28;1.77;;;1.67;;
14396;SDS011;50653;47.810;13.022;2024-02-16T08:52:55;1.57;;;1.40;;
14396;SDS011;50653;47.810;13.022;2024-02-16T08:55:21;1.03;;;0.93;;
14396;SDS011;50653;47.810;13.022;2024-02-16T08:57:46;0.97;;;0.90;;
14396;SDS011;50653;47.810;13.022;2024-02-16T09:00:13;1.00;;;0.80;;
14396;SDS011;50653;47.810;13.022;2024-02-16T09:02:40;0.80;;;0.70;;
14396;SDS011;50653;47.810;13.022;2024-02-16T09:05:06;0.70;;;0.70;;
14396;SDS011;50653;47.810;13.022;2024-02-16T09:07:34;1.27;;;0.70;;
14396;SDS011;50653;47.810;13.022;2024-02-16T09:10:00;0.60;;;0.47;;
14396;SDS011;50653;47.810;13.022;2024-02-16T09:12:26;0.80;;;0.50;;
14396;SDS011;50653;47.810;13.022;2024-02-16T09:14:52;0.80;;;0.67;;
14396;SDS011;50653;47.810;13.022;2024-02-16T09:17:18;0.70;;;0.50;;
14396;SDS011;50653;47.810;13.022;2024-02-16T09:19:45;0.97;;;0.50;;
14396;SDS011;50653;47.810;13.022;2024-02-16T09:22:11;0.80;;;0.70;;
14396;SDS011;50653;47.810;13.022;2024-02-16T09:24:37;1.50;;;0.70;;
14396;SDS011;50653;47.810;13.022;2024-02-16T09:27:02;1.00;;;0.60;;
14396;SDS011;50653;47.810;13.022;2024-02-16T09:29:29;0.60;;;0.50;;
14396;SDS011;50653;47.810;13.022;2024-02-16T09:31:56;0.60;;;0.50;;
14396;SDS011;50653;47.810;13.022;2024-02-16T09:34:21;1.00;;;0.53;;
14396;SDS011;50653;47.810;13.022;2024-02-16T09:36:47;0.60;;;0.40;;
14396;SDS011;50653;47.810;13.022;2024-02-16T09:39:13;0.80;;;0.60;;
14396;SDS011;50653;47.810;13.022;2024-02-16T09:41:41;0.80;;;0.50;;
14396;SDS011;50653;47.810;13.022;2024-02-16T09:44:08;0.70;;;0.70;;
14396;SDS011;50653;47.810;13.022;2024-02-16T09:46:35;0.70;;;0.50;;
14396;SDS011;50653;47.810;13.022;2024-02-16T09:49:02;0.80;;;0.60;;
14396;SDS011;50653;47.810;13.022;2024-02-16T09:51:29;0.77;;;0.63;;
14396;SDS011;50653;47.810;13.022;2024-02-16T09:53:55;0.70;;;0.60;;
14396;SDS011;50653;47.810;13.022;2024-02-16T09:56:21;0.70;;;0.50;;
14396;SDS011;50653;47.810;13.022;2024-02-16T09:58:47;1.93;;;0.90;;
14396;SDS011;50653;47.810;13.022;2024-02-16T10:01:19;0.70;;;0.60;;
14396;SDS011;50653;47.810;13.022;2024-02-16T10:03:46;1.00;;;0.70;;
14396;SDS011;50653;47.810;13.022;2024-02-16T10:06:13;0.70;;;0.50;;
14396;SDS011;50653;47.810;13.022;2024-02-16T10:08:47;0.70;;;0.60;;
14396;SDS011;50653;47.810;13.022;2024-02-16T10:11:14;0.90;;;0.60;;
14396;SDS011;50653;47.810;13.022;2024-02-16T10:13:40;0.70;;;0.60;;
14396;SDS011;50653;47.810;13.022;2024-02-16T10:16:06;0.70;;;0.70;;
14396;SDS011;50653;47.810;13.022;2024-02-16T10:18:35;0.90;;;0.70;;
14396;SDS011;50653;47.810;13.022;2024-02-16T10:21:01;1.57;;;1.20;;
14396;SDS011;50653;47.810;13.022;2024-02-16T10:23:27;1.80;;;1.70;;
14396;SDS011;50653;47.810;13.022;2024-02-16T10:25:53;1.30;;;1.20;;
14396;SDS011;50653;47.810;13.022;2024-02-16T10:28:20;2.00;;;1.80;;
14396;SDS011;50653;47.810;13.022;2024-02-16T10:30:52;1.70;;;1.60;;
14396;SDS011;50653;47.810;13.022;2024-02-16T10:33:22;2.10;;;1.43;;
14396;SDS011;50653;47.810;13.022;2024-02-16T10:35:49;1.70;;;1.47;;
14396;SDS011;50653;47.810;13.022;2024-02-16T10:38:16;1.10;;;1.00;;
14396;SDS011;50653;47.810;13.022;2024-02-16T10:40:44;1.50;;;1.40;;
14396;SDS011;50653;47.810;13.022;2024-02-16T10:43:13;1.00;;;0.90;;
14396;SDS011;50653;47.810;13.022;2024-02-16T10:45:40;1.00;;;0.90;;
14396;SDS011;50653;47.810;13.022;2024-02-16T10:48:06;1.10;;;1.00;;
14396;SDS011;50653;47.810;13.022;2024-02-16T10:50:33;0.90;;;0.80;;
14396;SDS011;50653;47.810;13.022;2024-02-16T10:53:11;1.00;;;0.90;;
14396;SDS011;50653;47.810;13.022;2024-02-16T10:55:44;1.57;;;0.60;;
14396;SDS011;50653;47.810;13.022;2024-02-16T10:58:11;1.13;;;1.03;;
14396;SDS011;50653;47.810;13.022;2024-02-16T11:00:47;0.83;;;0.80;;
14396;SDS011;50653;47.810;13.022;2024-02-16T11:03:18;0.73;;;0.73;;
14396;SDS011;50653;47.810;13.022;2024-02-16T11:05:50;1.20;;;0.93;;
14396;SDS011;50653;47.810;13.022;2024-02-16T11:08:18;0.73;;;0.70;;
14396;SDS011;50653;47.810;13.022;2024-02-16T11:10:57;0.83;;;0.60;;
14396;SDS011;50653;47.810;13.022;2024-02-16T11:13:24;0.73;;;0.60;;
14396;SDS011;50653;47.810;13.022;2024-02-16T11:16:00;0.83;;;0.70;;
14396;SDS011;50653;47.810;13.022;2024-02-16T11:18:39;2.40;;;1.00;;
14396;SDS011;50653;47.810;13.022;2024-02-16T11:21:11;0.80;;;0.70;;
14396;SDS011;50653;47.810;13.022;2024-02-16T11:23:40;0.60;;;0.47;;
14396;SDS011;50653;47.810;13.022;2024-02-16T11:26:10;0.63;;;0.50;;
14396;SDS011;50653;47.810;13.022;2024-02-16T11:28:37;1.10;;;0.60;;
14396;SDS011;50653;47.810;13.022;2024-02-16T11:31:03;0.60;;;0.50;;
14396;SDS011;50653;47.810;13.022;2024-02-16T11:33:30;0.70;;;0.53;;
14396;SDS011;50653;47.810;13.022;2024-02-16T11:35:56;0.80;;;0.63;;
14396;SDS011;50653;47.810;13.022;2024-02-16T11:38:26;0.87;;;0.60;;
14396;SDS011;50653;47.810;13.022;2024-02-16T11:40:58;1.07;;;0.80;;
14396;SDS011;50653;47.810;13.022;2024-02-16T11:43:26;0.80;;;0.60;;
14396;SDS011;50653;47.810;13.022;2024-02-16T11:45:52;1.33;;;0.93;;
14396;SDS011;50653;47.810;13.022;2024-02-16T11:48:19;1.17;;;0.90;;
14396;SDS011;50653;47.810;13.022;2024-02-16T11:50:49;0.80;;;0.70;;
14396;SDS011;50653;47.810;13.022;2024-02-16T11:53:23;1.10;;;1.00;;
14396;SDS011;50653;47.810;13.022;2024-02-16T11:55:49;1.53;;;1.43;;
14396;SDS011;50653;47.810;13.022;2024-02-16T11:58:18;1.20;;;1.10;;
14396;SDS011;50653;47.810;13.022;2024-02-16T12:00:47;1.27;;;1.17;;
14396;SDS011;50653;47.810;13.022;2024-02-16T12:05:51;1.53;;;1.43;;
14396;SDS011;50653;47.810;13.022;2024-02-16T12:08:20;1.53;;;1.30;;
14396;SDS011;50653;47.810;13.022;2024-02-16T12:10:50;1.00;;;0.90;;
14396;SDS011;50653;47.810;13.022;2024-02-16T12:13:19;1.40;;;1.27;;
14396;SDS011;50653;47.810;13.022;2024-02-16T12:15:49;0.87;;;0.87;;
14396;SDS011;50653;47.810;13.022;2024-02-16T12:18:21;1.50;;;1.40;;
14396;SDS011;50653;47.810;13.022;2024-02-16T12:21:00;1.93;;;1.40;;
14396;SDS011;50653;47.810;13.022;2024-02-16T12:23:28;1.80;;;1.70;;
14396;SDS011;50653;47.810;13.022;2024-02-16T12:25:57;1.10;;;1.00;;
14396;SDS011;50653;47.810;13.022;2024-02-16T12:28:30;1.50;;;1.40;;
14396;SDS011;50653;47.810;13.022;2024-02-16T12:31:01;1.43;;;1.33;;
14396;SDS011;50653;47.810;13.022;2024-02-16T12:33:26;1.00;;;0.90;;
14396;SDS011;50653;47.810;13.022;2024-02-16T12:35:52;1.00;;;0.80;;
14396;SDS011;50653;47.810;13.022;2024-02-16T12:38:19;1.13;;;0.77;;
14396;SDS011;50653;47.810;13.022;2024-02-16T12:40:45;1.80;;;0.90;;
14396;SDS011;50653;47.810;13.022;2024-02-16T12:43:14;1.67;;;1.10;;
14396;SDS011;50653;47.810;13.022;2024-02-16T12:45:40;0.80;;;0.80;;
14396;SDS011;50653;47.810;13.022;2024-02-16T12:48:06;1.53;;;1.23;;
14396;SDS011;50653;47.810;13.022;2024-02-16T12:50:34;1.10;;;1.00;;
14396;SDS011;50653;47.810;13.022;2024-02-16T12:53:01;1.30;;;0.97;;
14396;SDS011;50653;47.810;13.022;2024-02-16T12:55:26;1.00;;;0.90;;
14396;SDS011;50653;47.810;13.022;2024-02-16T12:57:53;0.90;;;0.67;;
14396;SDS011;50653;47.810;13.022;2024-02-16T13:00:18;0.90;;;0.70;;
14396;SDS011;50653;47.810;13.022;2024-02-16T13:02:44;0.80;;;0.60;;
14396;SDS011;50653;47.810;13.022;2024-02-16T13:05:10;1.03;;;0.93;;
14396;SDS011;50653;47.810;13.022;2024-02-16T13:07:36;1.10;;;1.00;;
14396;SDS011;50653;47.810;13.022;2024-02-16T13:10:07;2.93;;;1.03;;
14396;SDS011;50653;47.810;13.022;2024-02-16T13:12:33;1.03;;;0.83;;
14396;SDS011;50653;47.810;13.022;2024-02-16T13:14:59;0.80;;;0.77;;
14396;SDS011;50653;47.810;13.022;2024-02-16T13:17:25;1.10;;;1.00;;
14396;SDS011;50653;47.810;13.022;2024-02-16T13:19:51;1.27;;;0.93;;
14396;SDS011;50653;47.810;13.022;2024-02-16T13:22:17;1.73;;;1.33;;
14396;SDS011;50653;47.810;13.022;2024-02-16T13:24:43;1.20;;;0.97;;
14396;SDS011;50653;47.810;13.022;2024-02-16T13:27:09;0.80;;;0.70;;
14396;SDS011;50653;47.810;13.022;2024-02-16T13:29:35;1.30;;;1.07;;
14396;SDS011;50653;47.810;13.022;2024-02-16T13:32:01;1.43;;;1.33;;
14396;SDS011;50653;47.810;13.022;2024-02-16T13:34:29;0.90;;;0.80;;
14396;SDS011;50653;47.810;13.022;2024-02-16T13:36:55;1.33;;;1.23;;
14396;SDS011;50653;47.810;13.022;2024-02-16T13:39:21;1.67;;;1.40;;
14396;SDS011;50653;47.810;13.022;2024-02-16T13:41:47;1.03;;;0.90;;
14396;SDS011;50653;47.810;13.022;2024-02-16T13:44:16;1.40;;;1.10;;
14396;SDS011;50653;47.810;13.022;2024-02-16T13:46:43;1.00;;;1.00;;
14396;SDS011;50653;47.810;13.022;2024-02-16T13:49:12;0.90;;;0.90;;
14396;SDS011;50653;47.810;13.022;2024-02-16T13:51:39;1.07;;;0.80;;
14396;SDS011;50653;47.810;13.022;2024-02-16T13:54:06;1.50;;;1.40;;
14396;SDS011;50653;47.810;13.022;2024-02-16T13:56:31;2.40;;;1.17;;
14396;SDS011;50653;47.810;13.022;2024-02-16T13:58:57;1.37;;;1.10;;
14396;SDS011;50653;47.810;13.022;2024-02-16T14:01:23;1.50;;;1.20;;
14396;SDS011;50653;47.810;13.022;2024-02-16T14:03:51;1.40;;;1.20;;
14396;SDS011;50653;47.810;13.022;2024-02-16T14:06:17;1.63;;;1.17;;
14396;SDS011;50653;47.810;13.022;2024-02-16T14:08:43;1.67;;;1.50;;
14396;SDS011;50653;47.810;13.022;2024-02-16T14:11:08;1.33;;;1.23;;
14396;SDS011;50653;47.810;13.022;2024-02-16T14:13:34;1.70;;;1.60;;
14396;SDS011;50653;47.810;13.022;2024-02-16T14:16:00;1.80;;;0.90;;
14396;SDS011;50653;47.810;13.022;2024-02-16T14:18:26;3.70;;;0.77;;
14396;SDS011;50653;47.810;13.022;2024-02-16T14:20:51;1.20;;;1.00;;
14396;SDS011;50653;47.810;13.022;2024-02-16T14:23:17;1.00;;;0.90;;
14396;SDS011;50653;47.810;13.022;2024-02-16T14:25:43;1.93;;;0.80;;
14396;SDS011;50653;47.810;13.022;2024-02-16T14:28:10;1.40;;;1.10;;
14396;SDS011;50653;47.810;13.022;2024-02-16T14:30:36;1.27;;;1.17;;
14396;SDS011;50653;47.810;13.022;2024-02-16T14:33:01;1.20;;;1.10;;